createdAt,value
2022-08-11T00:01:59.050Z,54.57
2022-08-11T00:04:34.212Z,54.52
2022-08-11T00:07:03.528Z,54.31
2022-08-11T00:09:38.989Z,54.44
2022-08-11T00:12:14.236Z,54.70
2022-08-11T00:14:41.518Z,54.61
2022-08-11T00:17:13.039Z,54.87
2022-08-11T00:20:12.253Z,54.79
2022-08-11T00:22:30.378Z,55.05
2022-08-11T00:25:01.736Z,55.25
2022-08-11T00:27:36.606Z,55.19
2022-08-11T00:30:08.630Z,55.29
2022-08-11T00:32:38.343Z,55.45
2022-08-11T00:35:55.088Z,55.59
2022-08-11T00:37:56.571Z,55.68
2022-08-11T00:40:44.165Z,56.16
2022-08-11T00:43:22.161Z,56.34
2022-08-11T00:46:16.281Z,56.41
2022-08-11T00:49:04.400Z,56.32
2022-08-11T00:52:03.753Z,56.81
2022-08-11T00:55:03.310Z,56.97
2022-08-11T00:57:41.816Z,57.06
2022-08-11T01:00:11.228Z,57.21
2022-08-11T01:02:56.359Z,57.24
2022-08-11T01:06:00.139Z,57.51
2022-08-11T01:08:58.910Z,57.41
2022-08-11T01:11:56.054Z,57.42
2022-08-11T01:15:13.067Z,57.38
2022-08-11T01:18:28.819Z,57.82
2022-08-11T01:21:14.064Z,57.78
2022-08-11T01:24:17.147Z,58.04
2022-08-11T01:26:43.483Z,58.20
2022-08-11T01:29:54.141Z,58.11
2022-08-11T01:33:08.026Z,58.57
2022-08-11T01:36:04.744Z,58.21
2022-08-11T01:39:18.779Z,58.16
2022-08-11T01:42:24.232Z,58.47
2022-08-11T01:45:02.805Z,58.42
2022-08-11T01:47:54.316Z,58.23
2022-08-11T01:50:40.424Z,58.38
2022-08-11T01:53:27.380Z,58.51
2022-08-11T01:56:18.737Z,58.85
2022-08-11T01:59:08.785Z,58.81
2022-08-11T02:01:50.412Z,59.05
2022-08-11T02:04:25.874Z,58.64
2022-08-11T02:07:03.112Z,59.00
2022-08-11T02:10:23.320Z,59.11
2022-08-11T02:12:58.282Z,59.21
2022-08-11T02:15:42.510Z,59.33
2022-08-11T02:18:52.587Z,59.33
2022-08-11T02:21:47.714Z,59.56
2022-08-11T02:24:37.135Z,59.75
2022-08-11T02:27:13.821Z,59.94
2022-08-11T02:30:04.997Z,60.35
2022-08-11T02:33:25.510Z,60.69
2022-08-11T02:36:19.673Z,61.22
2022-08-11T02:39:07.840Z,61.23
2022-08-11T02:42:08.872Z,61.16
2022-08-11T02:45:09.933Z,61.27
2022-08-11T02:48:06.905Z,61.37
2022-08-11T02:50:42.160Z,61.40
2022-08-11T02:53:16.789Z,61.49
2022-08-11T02:56:08.680Z,61.58
2022-08-11T02:58:35.465Z,62.01
2022-08-11T03:01:28.322Z,62.16
2022-08-11T03:04:10.889Z,62.30
2022-08-11T03:07:28.125Z,62.21
2022-08-11T03:10:06.949Z,62.30
2022-08-11T03:13:02.927Z,62.59
2022-08-11T03:16:08.861Z,62.59
2022-08-11T03:19:13.929Z,62.95
2022-08-11T03:22:07.254Z,63.04
2022-08-11T03:24:46.373Z,62.92
2022-08-11T03:27:39.428Z,63.11
2022-08-11T03:30:08.052Z,63.41
2022-08-11T03:33:12.414Z,63.80
2022-08-11T03:36:00.383Z,63.89
2022-08-11T03:38:49.091Z,63.90
2022-08-11T03:42:01.788Z,64.25
2022-08-11T03:44:46.528Z,64.22
2022-08-11T03:47:23.819Z,64.53
2022-08-11T03:50:07.340Z,64.56
2022-08-11T03:52:36.964Z,64.73
2022-08-11T03:55:28.379Z,64.99
2022-08-11T03:58:03.783Z,65.42
2022-08-11T04:00:55.033Z,65.32
2022-08-11T04:04:03.176Z,65.43
2022-08-11T04:07:07.016Z,65.66
2022-08-11T04:09:36.193Z,65.69
2022-08-11T04:12:47.131Z,65.88
2022-08-11T04:16:11.870Z,66.08
2022-08-11T04:18:58.342Z,66.18
2022-08-11T04:22:15.227Z,66.38
2022-08-11T04:25:23.049Z,66.55
2022-08-11T04:28:28.867Z,66.87
2022-08-11T04:31:08.472Z,66.84
2022-08-11T04:33:56.451Z,66.93
2022-08-11T04:36:43.501Z,66.89
2022-08-11T04:39:28.003Z,66.90
2022-08-11T04:42:31.873Z,66.83
2022-08-11T04:45:34.246Z,66.60
2022-08-11T04:48:37.906Z,66.41
2022-08-11T04:51:58.042Z,66.30
2022-08-11T04:55:20.590Z,66.11
2022-08-11T04:58:20.958Z,66.24
2022-08-11T05:01:41.820Z,66.19
2022-08-11T05:04:54.871Z,66.06
2022-08-11T05:07:49.510Z,65.99
2022-08-11T05:10:41.408Z,66.00
2022-08-11T05:13:30.812Z,65.89
2022-08-11T05:16:28.938Z,65.84
2022-08-11T05:19:16.343Z,65.64
2022-08-11T05:22:11.717Z,65.38
2022-08-11T05:25:04.667Z,65.15
2022-08-11T05:28:08.671Z,64.93
2022-08-11T05:30:56.932Z,64.54
2022-08-11T05:34:06.516Z,64.20
2022-08-11T05:36:48.018Z,63.68
2022-08-11T05:39:43.054Z,63.02
2022-08-11T05:42:29.937Z,62.39
2022-08-11T05:45:23.730Z,61.20
2022-08-11T05:48:10.104Z,60.47
2022-08-11T05:50:56.073Z,59.31
2022-08-11T05:53:45.731Z,57.43
2022-08-11T05:56:19.717Z,55.44
2022-08-11T05:58:54.732Z,53.99
2022-08-11T06:01:26.799Z,51.91
2022-08-11T06:04:14.124Z,50.26
2022-08-11T06:06:52.551Z,48.71
2022-08-11T06:09:36.496Z,47.25
2022-08-11T06:12:24.722Z,45.85
2022-08-11T06:14:55.187Z,44.43
2022-08-11T06:17:38.491Z,43.50
2022-08-11T06:20:14.674Z,42.21
2022-08-11T06:22:48.523Z,41.03
2022-08-11T06:25:17.939Z,39.98
2022-08-11T06:27:45.983Z,39.08
2022-08-11T06:30:17.048Z,38.42
2022-08-11T06:32:44.815Z,38.57
2022-08-11T06:35:25.409Z,36.93
2022-08-11T06:38:30.303Z,36.76
2022-08-11T06:41:29.217Z,35.41
2022-08-11T06:44:13.701Z,35.29
2022-08-11T06:46:48.021Z,34.79
2022-08-11T06:49:35.047Z,34.49
2022-08-11T06:52:04.847Z,34.03
2022-08-11T06:54:38.541Z,33.82
2022-08-11T06:57:31.905Z,33.48
2022-08-11T07:00:36.356Z,33.58
2022-08-11T07:03:09.199Z,33.22
2022-08-11T07:05:55.710Z,32.85
2022-08-11T07:09:05.881Z,32.37
2022-08-11T07:12:19.678Z,32.98
2022-08-11T07:15:10.826Z,33.01
2022-08-11T07:18:10.399Z,32.35
2022-08-11T07:21:01.935Z,32.29
2022-08-11T07:23:52.947Z,31.70
2022-08-11T07:26:42.408Z,31.38
2022-08-11T07:29:14.707Z,31.27
2022-08-11T07:31:51.678Z,30.92
2022-08-11T07:34:38.673Z,30.64
2022-08-11T07:37:13.584Z,30.19
2022-08-11T07:39:44.249Z,29.93
2022-08-11T07:42:13.870Z,29.14
2022-08-11T07:45:05.041Z,28.91
2022-08-11T07:47:52.212Z,29.36
2022-08-11T07:50:37.583Z,28.30
2022-08-11T07:53:04.567Z,27.86
2022-08-11T07:55:51.525Z,27.79
2022-08-11T07:58:52.173Z,27.96
2022-08-11T08:01:41.785Z,27.76
2022-08-11T08:04:32.572Z,27.58
2022-08-11T08:07:19.893Z,27.65
2022-08-11T08:10:07.379Z,27.62
2022-08-11T08:12:54.289Z,27.34
2022-08-11T08:15:41.227Z,27.26
2022-08-11T08:18:26.642Z,27.61
2022-08-11T08:20:56.569Z,27.91
2022-08-11T08:23:35.705Z,27.53
2022-08-11T08:26:05.232Z,27.78
2022-08-11T08:28:33.764Z,27.62
2022-08-11T08:31:00.518Z,27.47
2022-08-11T08:33:30.268Z,27.54
2022-08-11T08:36:17.005Z,27.17
2022-08-11T08:38:53.009Z,26.72
2022-08-11T08:41:28.938Z,27.04
2022-08-11T08:44:21.020Z,27.62
2022-08-11T08:46:54.303Z,27.53
2022-08-11T08:49:27.756Z,27.13
2022-08-11T08:52:20.273Z,26.76
2022-08-11T08:54:48.433Z,26.25
2022-08-11T08:57:18.634Z,26.25
2022-08-11T08:59:48.932Z,26.33
2022-08-11T09:02:19.801Z,26.14
2022-08-11T09:05:02.682Z,25.85
2022-08-11T09:07:38.788Z,25.54
2022-08-11T09:10:08.439Z,25.91
2022-08-11T09:12:38.838Z,25.61
2022-08-11T09:15:14.001Z,25.49
2022-08-11T09:17:53.344Z,25.59
2022-08-11T09:20:23.894Z,25.33
2022-08-11T09:24:07.754Z,25.35
2022-08-11T09:26:33.296Z,25.26
2022-08-11T09:29:01.663Z,25.12
2022-08-11T09:31:40.129Z,24.68
2022-08-11T09:34:08.598Z,25.22
2022-08-11T09:36:54.218Z,24.88
2022-08-11T09:39:39.634Z,24.54
2022-08-11T09:42:11.427Z,24.27
2022-08-11T09:44:50.266Z,24.59
2022-08-11T09:47:29.576Z,24.61
2022-08-11T09:50:01.054Z,23.87
2022-08-11T09:52:35.750Z,23.71
2022-08-11T09:55:14.715Z,23.63
2022-08-11T09:58:04.393Z,23.35
2022-08-11T10:00:33.213Z,23.39
2022-08-11T10:03:02.660Z,22.70
2022-08-11T10:05:48.596Z,23.39
2022-08-11T10:08:23.454Z,22.96
2022-08-11T10:10:59.280Z,21.91
2022-08-11T10:14:31.973Z,22.40
2022-08-11T10:16:42.154Z,22.50
2022-08-11T10:19:21.160Z,22.78
2022-08-11T10:22:09.825Z,22.35
2022-08-11T10:24:55.620Z,21.11
2022-08-11T10:27:27.232Z,21.77
2022-08-11T10:30:16.596Z,21.73
2022-08-11T10:33:02.824Z,22.04
2022-08-11T10:35:34.900Z,21.51
2022-08-11T10:38:16.055Z,21.36
2022-08-11T10:41:07.674Z,21.17
2022-08-11T10:44:01.481Z,21.26
2022-08-11T10:46:46.932Z,21.12
2022-08-11T10:49:19.303Z,21.22
2022-08-11T10:52:08.672Z,21.43
2022-08-11T10:55:11.403Z,21.39
2022-08-11T10:58:04.784Z,20.75
2022-08-11T11:00:41.293Z,20.71
2022-08-11T11:03:23.230Z,21.44
2022-08-11T11:06:28.682Z,20.88
2022-08-11T11:08:55.568Z,20.52
2022-08-11T11:11:48.768Z,20.73
2022-08-11T11:14:46.176Z,20.66
2022-08-11T11:17:36.791Z,20.36
2022-08-11T11:20:06.810Z,20.22
2022-08-11T11:22:39.821Z,20.42
2022-08-11T11:25:32.784Z,20.08
2022-08-11T11:28:34.665Z,20.12
2022-08-11T11:31:07.876Z,20.06
2022-08-11T11:34:18.211Z,19.62
2022-08-11T11:36:51.290Z,19.51
2022-08-11T11:39:25.571Z,19.16
2022-08-11T11:41:55.903Z,19.23
2022-08-11T11:44:23.947Z,19.36
2022-08-11T11:46:51.618Z,18.90
2022-08-11T11:51:57.440Z,19.11
2022-08-11T11:54:28.996Z,19.11
2022-08-11T11:57:18.921Z,18.98
2022-08-11T12:00:10.303Z,18.87
2022-08-11T12:02:37.834Z,18.70
2022-08-11T12:05:06.241Z,18.51
2022-08-11T12:08:04.851Z,18.17
2022-08-11T12:10:49.081Z,18.46
2022-08-11T12:13:37.754Z,18.11
2022-08-11T12:16:33.465Z,18.19
2022-08-11T12:19:00.493Z,18.10
2022-08-11T12:21:31.441Z,17.75
2022-08-11T12:24:19.536Z,17.70
2022-08-11T12:26:54.294Z,18.19
2022-08-11T12:29:36.648Z,18.28
2022-08-11T12:32:09.316Z,17.55
2022-08-11T12:34:38.297Z,17.38
2022-08-11T12:37:11.027Z,17.47
2022-08-11T12:40:17.006Z,17.67
2022-08-11T12:43:21.844Z,17.63
2022-08-11T12:45:58.298Z,17.92
2022-08-11T12:49:06.516Z,17.75
2022-08-11T12:52:01.482Z,17.53
2022-08-11T12:54:52.375Z,17.47
2022-08-11T12:57:51.695Z,17.12
2022-08-11T13:00:38.094Z,17.32
2022-08-11T13:03:27.432Z,16.81
2022-08-11T13:06:00.015Z,16.60
2022-08-11T13:08:29.275Z,17.13
2022-08-11T13:11:17.339Z,16.91
2022-08-11T13:13:55.042Z,16.74
2022-08-11T13:16:53.784Z,16.81
2022-08-11T13:19:21.883Z,16.64
2022-08-11T13:21:50.863Z,16.51
2022-08-11T13:24:19.003Z,16.80
2022-08-11T13:26:49.630Z,16.23
2022-08-11T13:29:25.081Z,16.12
2022-08-11T13:31:53.950Z,16.57
2022-08-11T13:34:22.980Z,16.31
2022-08-11T13:36:52.159Z,16.22
2022-08-11T13:39:20.651Z,16.28
2022-08-11T13:41:48.629Z,16.79
2022-08-11T13:44:23.311Z,16.47
2022-08-11T13:46:52.831Z,16.63
2022-08-11T13:49:21.905Z,16.36
2022-08-11T13:51:49.288Z,16.50
2022-08-11T13:54:25.454Z,16.69
2022-08-11T13:56:59.789Z,16.56
2022-08-11T13:59:30.294Z,16.96
2022-08-11T14:02:21.671Z,16.99
2022-08-11T14:05:02.911Z,17.05
2022-08-11T14:07:37.403Z,17.25
2022-08-11T14:10:06.925Z,17.01
2022-08-11T14:12:54.105Z,17.21
2022-08-11T14:15:27.675Z,17.50
2022-08-11T14:18:05.032Z,17.09
2022-08-11T14:20:55.510Z,17.02
2022-08-11T14:23:32.792Z,17.12
2022-08-11T14:26:19.000Z,17.24
2022-08-11T14:28:47.060Z,17.41
2022-08-11T14:31:17.336Z,17.75
2022-08-11T14:34:00.045Z,17.44
2022-08-11T14:36:37.499Z,17.63
2022-08-11T14:39:26.444Z,17.68
2022-08-11T14:42:14.931Z,17.63
2022-08-11T14:45:03.679Z,17.63
2022-08-11T14:47:33.559Z,17.68
2022-08-11T14:50:11.746Z,17.90
2022-08-11T14:52:43.806Z,17.76
2022-08-11T14:55:30.453Z,17.64
2022-08-11T14:57:57.504Z,17.81
2022-08-11T15:00:25.757Z,17.52
2022-08-11T15:03:15.015Z,17.85
2022-08-11T15:05:57.547Z,18.06
2022-08-11T15:08:51.857Z,18.06
2022-08-11T15:11:40.223Z,18.53
2022-08-11T15:14:08.722Z,18.12
2022-08-11T15:16:56.552Z,18.22
2022-08-11T15:19:24.096Z,18.34
2022-08-11T15:22:29.398Z,18.44
2022-08-11T15:24:58.686Z,18.76
2022-08-11T15:27:46.467Z,18.75
2022-08-11T15:30:32.833Z,19.30
2022-08-11T15:33:40.481Z,19.42
2022-08-11T15:36:28.113Z,19.31
2022-08-11T15:38:59.618Z,19.71
2022-08-11T15:41:58.569Z,19.26
2022-08-11T15:45:02.304Z,19.09
2022-08-11T15:47:37.329Z,19.54
2022-08-11T15:50:12.721Z,19.99
2022-08-11T15:52:46.341Z,19.99
2022-08-11T15:55:14.437Z,20.73
2022-08-11T15:58:00.311Z,21.39
2022-08-11T16:00:48.667Z,20.55
2022-08-11T16:04:07.840Z,19.99
2022-08-11T16:06:40.491Z,19.93
2022-08-11T16:09:19.848Z,20.19
2022-08-11T16:11:48.378Z,20.11
2022-08-11T16:14:35.973Z,20.14
2022-08-11T16:17:04.518Z,20.32
2022-08-11T16:19:36.916Z,20.20
2022-08-11T16:22:09.306Z,20.13
2022-08-11T16:27:03.581Z,21.60
2022-08-11T16:27:34.126Z,22.79
2022-08-11T16:30:02.575Z,22.60
2022-08-11T16:32:31.240Z,22.74
2022-08-11T16:35:21.262Z,22.95
2022-08-11T16:38:07.509Z,22.60
2022-08-11T16:40:39.068Z,22.59
2022-08-11T16:43:27.233Z,21.33
2022-08-11T16:46:14.500Z,21.48
2022-08-11T16:48:42.745Z,21.57
2022-08-11T16:51:12.175Z,22.42
2022-08-11T16:53:59.894Z,23.62
2022-08-11T16:56:46.058Z,24.02
2022-08-11T16:59:33.854Z,24.10
2022-08-11T17:02:09.557Z,24.72
2022-08-11T17:05:15.689Z,24.86
2022-08-11T17:08:02.233Z,24.69
2022-08-11T17:11:03.653Z,24.59
2022-08-11T17:13:40.127Z,25.05
2022-08-11T17:16:13.923Z,25.20
2022-08-11T17:18:43.512Z,24.84
2022-08-11T17:21:29.940Z,24.82
2022-08-11T17:24:05.090Z,25.48
2022-08-11T17:26:59.642Z,25.56
2022-08-11T17:29:34.119Z,26.00
2022-08-11T17:32:56.085Z,25.77
2022-08-11T17:35:31.238Z,26.18
2022-08-11T17:38:03.940Z,26.33
2022-08-11T17:40:32.632Z,26.37
2022-08-11T17:43:19.021Z,25.99
2022-08-11T17:46:05.426Z,26.68
2022-08-11T17:48:47.637Z,26.42
2022-08-11T17:51:37.818Z,26.72
2022-08-11T17:54:25.688Z,26.25
2022-08-11T17:57:20.163Z,26.34
2022-08-11T17:59:52.800Z,26.67
2022-08-11T18:02:42.304Z,26.93
2022-08-11T18:05:13.480Z,26.97
2022-08-11T18:08:01.531Z,26.84
2022-08-11T18:10:49.179Z,27.18
2022-08-11T18:13:44.620Z,27.27
2022-08-11T18:16:30.618Z,27.17
2022-08-11T18:19:16.123Z,26.81
2022-08-11T18:22:14.575Z,27.23
2022-08-11T18:25:07.315Z,27.19
2022-08-11T18:27:54.256Z,27.51
2022-08-11T18:30:42.196Z,27.76
2022-08-11T18:36:41.404Z,28.43
2022-08-11T18:39:32.897Z,28.79
2022-08-11T18:42:29.394Z,29.37
2022-08-11T18:45:19.757Z,29.60
2022-08-11T18:48:09.207Z,29.73
2022-08-11T18:51:29.997Z,30.01
2022-08-11T18:54:07.700Z,30.27
2022-08-11T18:56:54.025Z,30.40
2022-08-11T18:59:44.852Z,30.87
2022-08-11T19:02:31.819Z,31.11
2022-08-11T19:06:37.303Z,31.58
2022-08-11T19:08:31.064Z,31.71
2022-08-11T19:11:16.491Z,32.22
2022-08-11T19:14:06.799Z,32.69
2022-08-11T19:16:53.505Z,33.27
2022-08-11T19:19:40.738Z,33.70
2022-08-11T19:22:29.148Z,34.22
2022-08-11T19:25:15.506Z,34.40
2022-08-11T19:28:02.404Z,34.58
2022-08-11T19:30:47.691Z,35.05
2022-08-11T19:33:59.855Z,35.27
2022-08-11T19:36:41.104Z,36.02
2022-08-11T19:39:28.646Z,35.90
2022-08-11T19:42:15.180Z,36.45
2022-08-11T19:45:03.426Z,36.64
2022-08-11T19:47:55.878Z,36.37
2022-08-11T19:50:54.650Z,36.44
2022-08-11T19:53:40.935Z,36.99
2022-08-11T19:56:27.323Z,36.87
2022-08-11T19:59:12.357Z,36.89
2022-08-11T20:02:12.673Z,37.08
2022-08-11T20:04:59.208Z,37.31
2022-08-11T20:07:44.877Z,37.21
2022-08-11T20:10:33.632Z,37.67
2022-08-11T20:13:21.883Z,37.30
2022-08-11T20:16:08.264Z,37.16
2022-08-11T20:18:54.329Z,37.49
2022-08-11T20:21:41.381Z,37.20
2022-08-11T20:24:27.592Z,36.75
2022-08-11T20:27:18.844Z,36.60
2022-08-11T20:30:09.639Z,36.26
2022-08-11T20:32:56.073Z,36.02
2022-08-11T20:35:42.614Z,36.09
2022-08-11T20:38:28.708Z,35.64
2022-08-11T20:41:16.042Z,35.99
2022-08-11T20:44:08.056Z,35.82
2022-08-11T20:49:58.625Z,35.93
2022-08-11T20:52:48.733Z,35.79
2022-08-11T20:55:46.345Z,35.63
2022-08-11T21:01:46.299Z,35.41
2022-08-11T21:04:32.875Z,35.67
2022-08-11T21:07:28.092Z,35.74
2022-08-11T21:10:23.290Z,36.40
2022-08-11T21:13:25.317Z,36.29
2022-08-11T21:16:25.411Z,36.56
2022-08-11T21:19:15.391Z,36.54
2022-08-11T21:22:01.146Z,36.96
2022-08-11T21:24:50.956Z,36.75
2022-08-11T21:27:38.361Z,36.87
2022-08-11T21:30:23.672Z,37.06
2022-08-11T21:33:09.822Z,37.38
2022-08-11T21:35:56.153Z,37.24
2022-08-11T21:38:41.437Z,37.42
2022-08-11T21:41:28.785Z,37.93
2022-08-11T21:44:16.613Z,37.72
2022-08-11T21:47:02.891Z,38.11
2022-08-11T21:49:49.589Z,38.02
2022-08-11T21:52:35.379Z,38.49
2022-08-11T21:55:21.726Z,38.53
2022-08-11T21:58:07.559Z,38.86
2022-08-11T22:00:53.427Z,39.02
2022-08-11T22:03:49.299Z,39.06
2022-08-11T22:06:35.809Z,39.26
2022-08-11T22:09:21.670Z,39.27
2022-08-11T22:12:34.062Z,39.45
2022-08-11T22:15:13.219Z,39.79
2022-08-11T22:17:58.268Z,40.23
2022-08-11T22:20:45.691Z,40.29
2022-08-11T22:23:36.517Z,40.69
2022-08-11T22:26:24.353Z,40.96
2022-08-11T22:29:10.155Z,40.84
2022-08-11T22:31:56.647Z,40.98
2022-08-11T22:34:52.635Z,41.28
2022-08-11T22:37:40.481Z,41.57
2022-08-11T22:40:27.877Z,41.71
2022-08-11T22:43:12.852Z,41.92
2022-08-11T22:45:58.339Z,42.07
2022-08-11T22:48:47.229Z,42.19
2022-08-11T22:51:33.664Z,42.37
2022-08-11T22:54:22.665Z,42.52
2022-08-11T22:57:08.640Z,42.53
2022-08-11T22:59:54.928Z,43.08
2022-08-11T23:02:40.799Z,43.11
2022-08-11T23:05:27.668Z,43.26
2022-08-11T23:08:15.999Z,43.38
2022-08-11T23:11:02.213Z,43.71
2022-08-11T23:13:50.649Z,43.90
2022-08-11T23:16:37.447Z,44.04
2022-08-11T23:20:06.846Z,44.05
2022-08-11T23:22:38.660Z,44.18
2022-08-11T23:25:34.869Z,44.31
2022-08-11T23:28:21.460Z,44.49
2022-08-11T23:31:09.475Z,44.78
2022-08-11T23:34:00.872Z,44.64
2022-08-11T23:36:47.331Z,44.92
2022-08-11T23:39:34.199Z,45.17
2022-08-11T23:42:20.400Z,45.25
2022-08-11T23:45:09.492Z,45.67
2022-08-11T23:47:57.314Z,45.81
2022-08-11T23:50:44.290Z,45.84
2022-08-11T23:53:31.149Z,46.04
2022-08-11T23:56:21.662Z,46.29
2022-08-11T23:59:08.949Z,46.47
